Time;durP1;ratioP1;P1;durP2;ratioP2;P2;SDS_P1;SDS_P2;PMS_P1;PMS_P2;Temp;Humidity;BMP_temperature;BMP_pressure;BME280_temperature;BME280_humidity;BME280_pressure;Samples;Min_cycle;Max_cycle;Signal;HPM_P1;HPM_P2
2023/09/02 00:01:41;;;;;;;0.97;0.53;;;16.30;99.90;;;;;;5115847;28;20819;-81
2023/09/02 00:04:09;;;;;;;0.60;0.60;;;16.20;99.90;;;;;;5115597;28;20853;-81
2023/09/02 00:06:35;;;;;;;1.30;0.90;;;16.20;99.90;;;;;;5115418;28;20463;-81
2023/09/02 00:09:02;;;;;;;0.47;0.40;;;16.20;99.90;;;;;;5115699;28;20439;-81
2023/09/02 00:11:29;;;;;;;0.90;0.80;;;16.20;99.90;;;;;;5115967;28;20439;-81
2023/09/02 00:13:56;;;;;;;2.83;0.83;;;16.20;99.90;;;;;;5115339;28;20452;-81
2023/09/02 00:16:22;;;;;;;0.70;0.50;;;16.20;99.90;;;;;;5115510;28;20467;-81
2023/09/02 00:18:51;;;;;;;0.70;0.70;;;16.20;99.90;;;;;;5115559;28;20443;-81
2023/09/02 00:21:18;;;;;;;0.80;0.53;;;16.20;99.90;;;;;;5115508;28;20453;-81
2023/09/02 00:23:46;;;;;;;0.50;0.50;;;16.20;99.90;;;;;;5115048;28;20482;-81
2023/09/02 00:26:12;;;;;;;0.60;0.60;;;16.20;99.90;;;;;;5115102;28;20455;-81
2023/09/02 00:28:39;;;;;;;0.73;0.60;;;16.20;99.90;;;;;;5115156;28;20806;-81
2023/09/02 00:31:06;;;;;;;0.73;0.53;;;16.10;99.90;;;;;;5115331;27;20446;-81
2023/09/02 00:33:32;;;;;;;1.17;0.90;;;16.10;99.90;;;;;;5114177;28;20439;-81
2023/09/02 00:36:01;;;;;;;0.50;0.50;;;16.10;99.90;;;;;;5115148;28;20459;-81
2023/09/02 00:38:28;;;;;;;1.23;0.70;;;16.00;99.90;;;;;;5115243;28;20435;-81
2023/09/02 00:41:00;;;;;;;1.00;0.60;;;16.00;99.90;;;;;;5115129;28;20435;-81
2023/09/02 00:43:28;;;;;;;0.83;0.50;;;16.00;99.90;;;;;;5114822;28;20463;-81
2023/09/02 00:45:55;;;;;;;0.53;0.50;;;16.00;99.90;;;;;;5114923;28;20470;-81
2023/09/02 00:48:22;;;;;;;0.60;0.60;;;16.00;99.90;;;;;;5114702;28;20442;-80
2023/09/02 00:50:49;;;;;;;0.70;0.70;;;16.00;99.90;;;;;;5114973;28;20472;-81
2023/09/02 00:53:18;;;;;;;0.60;0.60;;;16.00;99.90;;;;;;5115104;28;20443;-81
2023/09/02 00:55:46;;;;;;;0.70;0.70;;;15.90;99.90;;;;;;5114446;28;20470;-80
2023/09/02 00:58:13;;;;;;;0.70;0.70;;;15.90;99.90;;;;;;5114491;28;20446;-81
2023/09/02 01:00:41;;;;;;;0.70;0.60;;;15.90;99.90;;;;;;5114749;28;20439;-81
2023/09/02 01:03:07;;;;;;;1.10;0.70;;;15.90;99.90;;;;;;5114449;28;20486;-82
2023/09/02 01:05:35;;;;;;;1.37;0.57;;;15.90;99.90;;;;;;5114573;28;20466;-81
2023/09/02 01:08:04;;;;;;;0.50;0.50;;;15.90;99.90;;;;;;5114551;28;20443;-81
2023/09/02 01:10:35;;;;;;;0.60;0.60;;;15.80;99.90;;;;;;5114310;28;20988;-81
2023/09/02 01:13:03;;;;;;;2.60;0.80;;;15.80;99.90;;;;;;5114563;28;20431;-81
2023/09/02 01:15:30;;;;;;;0.50;0.50;;;15.70;99.90;;;;;;5114554;28;20456;-81
2023/09/02 01:17:57;;;;;;;5.90;0.90;;;15.70;99.90;;;;;;5114409;28;20439;-81
2023/09/02 01:20:27;;;;;;;1.30;0.60;;;15.70;99.90;;;;;;5114402;28;20443;-81
2023/09/02 01:23:03;;;;;;;1.10;0.93;;;15.70;99.90;;;;;;5114257;28;20843;-81
2023/09/02 01:26:02;;;;;;;2.70;0.80;;;15.70;99.90;;;;;;5113958;28;20463;-81
2023/09/02 01:28:34;;;;;;;0.70;0.70;;;15.70;99.90;;;;;;5114327;28;20428;-80
2023/09/02 01:31:03;;;;;;;0.90;0.80;;;15.60;99.90;;;;;;5114471;28;20726;-81
2023/09/02 01:33:30;;;;;;;0.90;0.90;;;15.60;99.90;;;;;;5114177;28;20435;-81
2023/09/02 01:36:00;;;;;;;0.50;0.50;;;15.60;99.90;;;;;;5114098;27;20467;-80
2023/09/02 01:38:29;;;;;;;1.33;0.90;;;15.60;99.90;;;;;;5114382;28;20450;-81
2023/09/02 01:40:59;;;;;;;1.10;0.70;;;15.60;99.90;;;;;;5114366;28;20446;-81
2023/09/02 01:43:29;;;;;;;1.00;0.70;;;15.60;99.90;;;;;;5113730;28;20467;-81
2023/09/02 01:45:58;;;;;;;0.80;0.80;;;15.60;99.90;;;;;;5114354;28;20467;-81
2023/09/02 01:48:26;;;;;;;0.67;0.67;;;15.60;99.90;;;;;;5113964;28;20789;-81
2023/09/02 01:50:53;;;;;;;0.80;0.57;;;15.50;99.90;;;;;;5113928;28;20920;-80
2023/09/02 01:53:20;;;;;;;0.50;0.50;;;15.50;99.90;;;;;;5113556;28;20812;-81
2023/09/02 01:55:48;;;;;;;3.67;1.03;;;15.50;99.90;;;;;;5113826;28;20465;-81
2023/09/02 01:58:15;;;;;;;1.33;1.10;;;15.50;99.90;;;;;;5113544;28;20538;-81
2023/09/02 02:00:41;;;;;;;0.70;0.50;;;15.50;99.90;;;;;;5113852;28;20435;-81
2023/09/02 02:03:13;;;;;;;0.90;0.77;;;15.50;99.90;;;;;;5113552;28;20494;-81
2023/09/02 02:05:46;;;;;;;0.60;0.60;;;15.50;99.90;;;;;;5113734;28;20546;-81
2023/09/02 02:08:16;;;;;;;0.60;0.50;;;15.50;99.90;;;;;;5113783;28;20431;-81
2023/09/02 02:10:45;;;;;;;0.80;0.60;;;15.50;99.90;;;;;;5113670;28;20936;-81
2023/09/02 02:13:12;;;;;;;0.53;0.47;;;15.50;99.90;;;;;;5113387;28;20435;-81
2023/09/02 02:15:38;;;;;;;0.90;0.70;;;15.50;99.90;;;;;;5113302;28;20967;-81
2023/09/02 02:18:05;;;;;;;0.50;0.50;;;15.50;99.90;;;;;;5113652;28;20439;-81
2023/09/02 02:20:38;;;;;;;0.70;0.40;;;15.50;99.90;;;;;;5113619;28;20447;-81
2023/09/02 02:23:05;;;;;;;0.83;0.50;;;15.40;99.90;;;;;;5113799;28;20474;-81
2023/09/02 02:25:32;;;;;;;0.90;0.70;;;15.40;99.90;;;;;;5113520;28;20471;-81
2023/09/02 02:27:59;;;;;;;2.37;0.53;;;15.40;99.90;;;;;;5113561;28;20465;-81
2023/09/02 02:30:26;;;;;;;0.60;0.50;;;15.40;99.90;;;;;;5113528;28;20443;-81
2023/09/02 02:32:53;;;;;;;1.00;0.77;;;15.40;99.90;;;;;;5113172;28;20951;-81
2023/09/02 02:35:22;;;;;;;0.87;0.87;;;15.40;99.90;;;;;;5113393;28;20467;-81
2023/09/02 02:37:52;;;;;;;1.63;0.60;;;15.40;99.90;;;;;;5113210;28;20502;-81
2023/09/02 02:40:18;;;;;;;1.23;0.93;;;15.40;99.90;;;;;;5113451;28;20454;-81
2023/09/02 02:42:45;;;;;;;1.80;0.90;;;15.40;99.90;;;;;;5113334;28;20515;-81
2023/09/02 02:45:12;;;;;;;0.70;0.63;;;15.40;99.90;;;;;;5113288;28;20463;-81
2023/09/02 02:47:38;;;;;;;1.43;0.80;;;15.40;99.90;;;;;;5113383;28;20450;-81
2023/09/02 02:50:06;;;;;;;0.80;0.70;;;15.40;99.90;;;;;;5113050;28;20442;-81
2023/09/02 02:52:33;;;;;;;0.70;0.70;;;15.40;99.90;;;;;;5113318;28;20465;-81
2023/09/02 02:55:01;;;;;;;0.90;0.70;;;15.40;99.90;;;;;;5112932;28;20443;-81
2023/09/02 02:57:27;;;;;;;1.70;0.70;;;15.40;99.90;;;;;;5116845;28;20438;-81
2023/09/02 02:59:54;;;;;;;2.90;0.83;;;15.40;99.90;;;;;;5117118;28;20435;-81
2023/09/02 03:02:21;;;;;;;1.07;0.97;;;15.30;99.90;;;;;;5116905;28;20955;-81
2023/09/02 03:04:48;;;;;;;2.30;0.83;;;15.30;99.90;;;;;;5116712;28;20535;-81
2023/09/02 03:07:15;;;;;;;1.47;1.03;;;15.30;99.90;;;;;;5117005;28;20458;-81
2023/09/02 03:09:42;;;;;;;0.70;0.70;;;15.20;99.90;;;;;;5116889;28;20967;-81
2023/09/02 03:12:10;;;;;;;1.10;0.70;;;15.20;99.90;;;;;;5116884;28;20466;-81
2023/09/02 03:14:37;;;;;;;1.10;1.00;;;15.20;99.90;;;;;;5116854;28;20441;-81
2023/09/02 03:17:04;;;;;;;0.83;0.70;;;15.10;99.90;;;;;;5116385;28;20853;-81
2023/09/02 03:19:31;;;;;;;0.60;0.60;;;15.10;99.90;;;;;;5116799;28;20434;-81
2023/09/02 03:21:57;;;;;;;0.43;0.43;;;15.20;99.90;;;;;;5116412;28;20450;-81
2023/09/02 03:24:24;;;;;;;0.60;0.60;;;15.20;99.90;;;;;;5116592;28;20479;-81
2023/09/02 03:26:51;;;;;;;1.97;0.80;;;15.20;99.90;;;;;;5116785;28;20463;-80
2023/09/02 03:29:19;;;;;;;0.87;0.87;;;15.10;99.90;;;;;;5116534;28;20443;-80
2023/09/02 03:31:46;;;;;;;1.53;0.80;;;15.10;99.90;;;;;;5116732;28;20537;-80
2023/09/02 03:34:13;;;;;;;0.80;0.80;;;15.10;99.90;;;;;;5116461;28;20445;-81
2023/09/02 03:36:40;;;;;;;0.80;0.60;;;15.30;99.90;;;;;;5116051;28;20834;-81
2023/09/02 03:39:06;;;;;;;0.80;0.80;;;15.10;99.90;;;;;;5116380;27;20439;-80
2023/09/02 03:41:37;;;;;;;0.50;0.50;;;15.10;99.90;;;;;;5116232;28;20431;-81
2023/09/02 03:44:04;;;;;;;1.23;0.60;;;15.10;99.90;;;;;;5116258;28;20459;-81
2023/09/02 03:46:32;;;;;;;1.17;0.90;;;15.00;99.90;;;;;;5115983;28;20844;-81
2023/09/02 03:48:59;;;;;;;0.67;0.67;;;15.00;99.90;;;;;;5115897;27;20958;-81
2023/09/02 03:51:26;;;;;;;0.60;0.60;;;15.00;99.90;;;;;;5116165;28;20449;-80
2023/09/02 03:53:52;;;;;;;0.60;0.60;;;15.00;99.90;;;;;;5116128;28;20439;-80
2023/09/02 03:56:19;;;;;;;0.90;0.77;;;15.00;99.90;;;;;;5115652;28;21001;-81
2023/09/02 03:58:46;;;;;;;1.90;1.00;;;15.00;99.90;;;;;;5116258;28;20440;-80
2023/09/02 04:01:12;;;;;;;0.87;0.87;;;15.00;99.90;;;;;;5116107;28;20447;-80
2023/09/02 04:03:42;;;;;;;0.80;0.50;;;15.00;99.90;;;;;;5115481;28;21512;-81
2023/09/02 04:06:08;;;;;;;0.70;0.70;;;15.00;99.90;;;;;;5115753;28;20467;-80
2023/09/02 04:08:36;;;;;;;3.00;0.73;;;15.00;99.90;;;;;;5115750;28;20818;-81
2023/09/02 04:11:03;;;;;;;0.63;0.63;;;15.00;99.90;;;;;;5115768;28;20447;-81
2023/09/02 04:13:30;;;;;;;4.50;0.77;;;15.00;99.90;;;;;;5115699;28;20446;-81
2023/09/02 04:15:57;;;;;;;0.80;0.73;;;14.90;99.90;;;;;;5115753;28;20466;-81
2023/09/02 04:18:25;;;;;;;1.10;1.00;;;14.90;99.90;;;;;;5115206;28;20838;-81
2023/09/02 04:20:54;;;;;;;0.70;0.67;;;14.90;99.90;;;;;;5115562;28;20439;-81
2023/09/02 04:23:21;;;;;;;1.23;0.80;;;14.80;99.90;;;;;;5115809;28;20846;-81
2023/09/02 04:25:50;;;;;;;2.20;0.93;;;14.80;99.90;;;;;;5115400;28;20825;-81
2023/09/02 04:28:17;;;;;;;2.10;1.20;;;14.80;99.90;;;;;;5115398;28;20443;-80
2023/09/02 04:30:44;;;;;;;0.80;0.67;;;14.90;99.90;;;;;;5115439;28;20450;-80
2023/09/02 04:33:11;;;;;;;1.60;0.57;;;14.80;99.90;;;;;;5115500;28;20450;-81
2023/09/02 04:35:38;;;;;;;1.60;0.70;;;14.80;99.90;;;;;;5115206;28;20461;-80
2023/09/02 04:38:07;;;;;;;0.60;0.60;;;14.80;99.90;;;;;;5115245;28;20443;-80
2023/09/02 04:40:37;;;;;;;0.80;0.77;;;14.80;99.90;;;;;;5115234;28;20446;-80
2023/09/02 04:43:05;;;;;;;0.80;0.60;;;14.80;99.90;;;;;;5115116;28;20484;-80
2023/09/02 04:45:33;;;;;;;0.97;0.60;;;14.80;99.90;;;;;;5114996;28;20463;-81
2023/09/02 04:48:00;;;;;;;4.10;0.70;;;14.90;99.90;;;;;;5115003;28;20508;-81
2023/09/02 04:50:27;;;;;;;0.93;0.77;;;14.90;99.90;;;;;;5114716;28;20790;-80
2023/09/02 04:52:54;;;;;;;1.07;0.80;;;14.80;99.90;;;;;;5114598;28;20955;-81
2023/09/02 04:55:24;;;;;;;1.20;0.70;;;14.90;99.90;;;;;;5114783;28;20455;-80
2023/09/02 04:57:51;;;;;;;0.80;0.70;;;14.90;99.90;;;;;;5114889;28;20522;-81
2023/09/02 05:00:18;;;;;;;5.20;0.93;;;14.80;99.90;;;;;;5114776;28;20442;-81
2023/09/02 05:02:46;;;;;;;1.23;0.63;;;14.80;99.90;;;;;;5114404;28;20936;-81
2023/09/02 05:05:13;;;;;;;0.63;0.63;;;14.80;99.90;;;;;;5114175;28;20495;-80
2023/09/02 05:07:40;;;;;;;0.70;0.60;;;14.80;99.90;;;;;;5114604;28;20791;-80
2023/09/02 05:10:08;;;;;;;1.77;0.50;;;14.80;99.90;;;;;;5114627;28;20949;-81
2023/09/02 05:12:36;;;;;;;1.10;0.90;;;14.80;99.90;;;;;;5114616;28;20431;-80
2023/09/02 05:15:04;;;;;;;1.23;1.00;;;14.80;99.90;;;;;;5114429;28;20439;-81
2023/09/02 05:17:31;;;;;;;2.07;0.77;;;14.80;99.90;;;;;;5114497;27;20447;-80
2023/09/02 05:19:58;;;;;;;2.47;0.87;;;14.90;99.90;;;;;;5113566;27;20446;-81
2023/09/02 05:22:25;;;;;;;1.73;0.90;;;14.90;99.90;;;;;;5114375;28;20445;-81
2023/09/02 05:24:52;;;;;;;1.03;0.90;;;15.00;99.90;;;;;;5113948;28;20479;-81
2023/09/02 05:27:19;;;;;;;1.30;1.03;;;15.00;99.90;;;;;;5114017;28;20435;-81
2023/09/02 05:29:48;;;;;;;0.80;0.77;;;15.00;99.90;;;;;;5113956;28;20454;-81
2023/09/02 05:32:15;;;;;;;1.27;1.17;;;15.10;99.90;;;;;;5114087;28;20966;-80
2023/09/02 05:34:42;;;;;;;8.27;0.80;;;15.10;99.90;;;;;;5114180;28;20449;-81
2023/09/02 05:37:08;;;;;;;1.10;0.80;;;15.10;99.90;;;;;;5114032;28;20459;-80
2023/09/02 05:39:35;;;;;;;0.70;0.60;;;15.20;99.90;;;;;;5113831;28;20454;-80
2023/09/02 05:42:02;;;;;;;1.00;0.70;;;15.20;99.90;;;;;;5113838;28;20438;-81
2023/09/02 05:44:29;;;;;;;0.90;0.63;;;15.20;99.90;;;;;;5113958;28;20490;-81
2023/09/02 05:46:57;;;;;;;0.70;0.60;;;15.20;99.90;;;;;;5113932;28;20463;-81
2023/09/02 05:49:24;;;;;;;0.90;0.90;;;15.30;99.90;;;;;;5113981;28;20445;-80
2023/09/02 05:51:51;;;;;;;1.10;0.93;;;15.30;99.90;;;;;;5113924;28;20439;-81
2023/09/02 05:54:17;;;;;;;2.40;1.00;;;15.40;99.90;;;;;;5114496;28;20420;-81
2023/09/02 05:56:47;;;;;;;1.70;1.10;;;15.40;99.90;;;;;;5113493;28;20843;-81
2023/09/02 05:59:13;;;;;;;1.27;0.70;;;15.60;99.90;;;;;;5113859;28;20435;-81
2023/09/02 06:01:40;;;;;;;0.90;0.70;;;15.50;99.90;;;;;;5113871;28;20465;-81
2023/09/02 06:04:08;;;;;;;1.03;0.90;;;15.50;99.90;;;;;;5113596;28;20489;-81
2023/09/02 06:06:35;;;;;;;0.93;0.70;;;15.60;99.90;;;;;;5113702;28;20521;-80
2023/09/02 06:09:02;;;;;;;6.60;0.97;;;15.70;99.90;;;;;;5113742;28;20439;-82
2023/09/02 06:11:30;;;;;;;2.23;1.47;;;15.70;99.90;;;;;;5113352;28;20943;-80
2023/09/02 06:13:57;;;;;;;3.13;0.83;;;15.80;99.90;;;;;;5113419;28;20966;-81
2023/09/02 06:16:24;;;;;;;0.53;0.50;;;15.80;99.90;;;;;;5113623;28;20462;-81
2023/09/02 06:18:50;;;;;;;2.00;0.77;;;15.90;99.90;;;;;;5113668;28;20509;-80
2023/09/02 06:21:18;;;;;;;1.37;1.00;;;15.90;99.90;;;;;;5113628;28;20446;-81
2023/09/02 06:23:46;;;;;;;0.80;0.80;;;16.10;99.90;;;;;;5116045;28;20447;-80
2023/09/02 06:26:13;;;;;;;1.77;0.90;;;16.20;99.90;;;;;;5113541;28;20553;-81
2023/09/02 06:28:40;;;;;;;0.80;0.70;;;16.40;99.90;;;;;;5113255;28;20821;-81
2023/09/02 06:31:07;;;;;;;3.70;0.77;;;16.60;99.90;;;;;;5114655;28;20438;-81
2023/09/02 06:33:34;;;;;;;1.53;0.90;;;16.70;99.90;;;;;;5117771;27;20439;-81
2023/09/02 06:36:00;;;;;;;0.70;0.70;;;16.90;99.90;;;;;;5117579;28;20470;-80
2023/09/02 06:38:30;;;;;;;3.20;1.80;;;17.00;99.90;;;;;;5117501;27;20443;-81
2023/09/02 06:40:57;;;;;;;0.90;0.70;;;17.20;99.90;;;;;;5117511;28;20446;-81
2023/09/02 06:43:23;;;;;;;1.30;0.93;;;17.30;99.90;;;;;;5117437;28;20453;-81
2023/09/02 06:45:50;;;;;;;1.57;0.90;;;17.40;99.90;;;;;;5116954;28;20487;-81
2023/09/02 06:48:17;;;;;;;1.33;0.90;;;17.50;99.90;;;;;;5117384;28;20449;-81
2023/09/02 06:50:47;;;;;;;0.97;0.87;;;17.60;99.90;;;;;;5117291;28;20469;-81
2023/09/02 06:53:13;;;;;;;1.37;0.80;;;17.60;99.90;;;;;;5117456;28;20459;-81
2023/09/02 06:55:41;;;;;;;1.87;0.70;;;17.80;99.90;;;;;;5117171;28;20463;-81
2023/09/02 06:58:08;;;;;;;1.73;0.90;;;17.90;99.90;;;;;;5117199;28;20445;-80
2023/09/02 07:00:36;;;;;;;1.63;1.00;;;17.90;99.90;;;;;;5117030;28;20935;-81
2023/09/02 07:03:02;;;;;;;1.33;1.23;;;18.10;99.90;;;;;;5117175;28;20812;-81
2023/09/02 07:05:29;;;;;;;1.43;0.93;;;18.10;99.90;;;;;;5116547;28;20493;-81
2023/09/02 07:07:56;;;;;;;1.20;1.10;;;18.30;99.90;;;;;;5117200;28;20438;-81
2023/09/02 07:10:23;;;;;;;0.67;0.60;;;18.30;99.90;;;;;;5116977;28;20446;-81
2023/09/02 07:12:53;;;;;;;1.07;0.70;;;18.40;99.90;;;;;;5116903;28;20934;-81
2023/09/02 07:15:20;;;;;;;1.30;0.80;;;18.40;99.90;;;;;;5116831;28;20471;-81
2023/09/02 07:17:47;;;;;;;2.90;0.90;;;18.60;99.90;;;;;;5117091;28;20426;-81
2023/09/02 07:20:13;;;;;;;1.17;0.83;;;18.70;99.90;;;;;;5116617;28;20916;-81
2023/09/02 07:22:40;;;;;;;1.10;0.67;;;18.80;99.90;;;;;;5116773;28;20423;-81
2023/09/02 07:25:08;;;;;;;1.10;0.73;;;18.80;99.90;;;;;;5116222;28;20482;-81
2023/09/02 07:27:35;;;;;;;1.50;0.80;;;18.90;99.90;;;;;;5116626;28;20443;-82
2023/09/02 07:30:03;;;;;;;0.90;0.70;;;19.00;99.90;;;;;;5116553;28;20450;-81
2023/09/02 07:32:30;;;;;;;1.43;0.87;;;19.00;99.90;;;;;;5116541;27;20446;-81
2023/09/02 07:34:57;;;;;;;1.00;0.80;;;19.20;99.90;;;;;;5116391;28;20466;-82
2023/09/02 07:37:23;;;;;;;0.90;0.90;;;19.40;99.90;;;;;;5116118;28;20954;-81
2023/09/02 07:39:50;;;;;;;0.60;0.60;;;19.50;99.90;;;;;;5116376;28;20450;-82
2023/09/02 07:42:17;;;;;;;0.93;0.70;;;19.60;99.90;;;;;;5115758;28;20442;-82
2023/09/02 07:44:43;;;;;;;1.23;1.10;;;19.70;99.90;;;;;;5116236;28;20851;-81
2023/09/02 07:47:11;;;;;;;0.80;0.70;;;19.80;99.90;;;;;;5115844;28;20459;-81
2023/09/02 07:49:38;;;;;;;1.10;1.00;;;19.80;99.90;;;;;;5116210;27;20439;-81
2023/09/02 07:52:06;;;;;;;1.80;1.10;;;20.00;99.90;;;;;;5116100;28;20451;-81
2023/09/02 07:54:32;;;;;;;0.80;0.60;;;20.00;99.90;;;;;;5116097;28;20488;-81
2023/09/02 07:56:59;;;;;;;1.20;1.00;;;20.10;99.90;;;;;;5116046;28;20455;-81
2023/09/02 07:59:26;;;;;;;1.47;0.90;;;20.10;99.90;;;;;;5116529;28;20442;-81
2023/09/02 08:01:53;;;;;;;3.83;1.17;;;20.30;99.90;;;;;;5115999;28;20449;-81
2023/09/02 08:04:21;;;;;;;1.57;1.00;;;20.40;99.90;;;;;;5115616;28;21018;-81
2023/09/02 08:06:47;;;;;;;0.80;0.70;;;20.70;99.90;;;;;;5115466;28;20492;-81
2023/09/02 08:09:14;;;;;;;2.20;1.00;;;20.70;99.90;;;;;;5115818;28;20446;-81
2023/09/02 08:11:41;;;;;;;2.50;1.00;;;20.70;99.90;;;;;;5115835;28;20438;-81
2023/09/02 08:14:08;;;;;;;0.60;0.60;;;20.80;99.90;;;;;;5115783;28;20481;-81
2023/09/02 08:16:34;;;;;;;0.80;0.70;;;20.90;99.90;;;;;;5115325;28;20983;-81
2023/09/02 08:19:01;;;;;;;0.70;0.70;;;21.00;99.90;;;;;;5115656;28;20438;-81
2023/09/02 08:21:29;;;;;;;1.00;1.00;;;21.20;99.90;;;;;;5115624;28;20439;-80
2023/09/02 08:23:56;;;;;;;1.37;0.70;;;21.30;99.90;;;;;;5115222;28;20896;-81
2023/09/02 08:26:22;;;;;;;1.00;0.90;;;21.20;99.90;;;;;;5115390;28;20482;-81
2023/09/02 08:28:49;;;;;;;1.80;1.00;;;21.30;99.90;;;;;;5115468;28;20442;-81
2023/09/02 08:31:19;;;;;;;0.70;0.70;;;21.40;99.90;;;;;;5115388;28;20810;-81
2023/09/02 08:33:46;;;;;;;0.80;0.80;;;21.50;99.90;;;;;;5115343;28;20445;-81
2023/09/02 08:36:16;;;;;;;1.33;0.80;;;21.60;99.90;;;;;;5115361;28;20461;-81
2023/09/02 08:38:44;;;;;;;1.60;0.80;;;21.70;99.90;;;;;;5114950;28;20942;-81
2023/09/02 08:41:14;;;;;;;1.23;1.13;;;21.80;99.90;;;;;;5115239;28;20449;-81
2023/09/02 08:43:41;;;;;;;0.93;0.80;;;22.00;99.90;;;;;;5115177;28;20472;-81
2023/09/02 08:46:10;;;;;;;1.13;0.60;;;22.10;99.90;;;;;;5114695;28;21029;-81
2023/09/02 08:48:42;;;;;;;1.00;1.00;;;22.20;99.90;;;;;;5115154;28;20442;-81
2023/09/02 08:51:11;;;;;;;2.70;1.10;;;22.40;99.90;;;;;;5114779;28;20891;-81
2023/09/02 08:53:39;;;;;;;0.70;0.70;;;22.60;99.90;;;;;;5114061;28;20442;-82
2023/09/02 08:56:08;;;;;;;0.70;0.60;;;22.50;99.90;;;;;;5115129;28;20456;-81
2023/09/02 08:58:39;;;;;;;2.30;0.70;;;22.70;99.90;;;;;;5115180;28;20207;-81
2023/09/02 09:01:06;;;;;;;0.67;0.67;;;22.90;99.90;;;;;;5114608;28;20189;-81
2023/09/02 09:03:34;;;;;;;1.07;0.97;;;23.20;99.90;;;;;;5114485;28;20204;-81
2023/09/02 09:06:06;;;;;;;0.60;0.57;;;23.60;99.90;;;;;;5114674;28;20302;-81
2023/09/02 09:08:33;;;;;;;0.60;0.57;;;24.00;99.90;;;;;;5115000;28;20189;-81
2023/09/02 09:11:00;;;;;;;0.80;0.60;;;24.10;99.90;;;;;;5114657;28;20201;-81
2023/09/02 09:13:30;;;;;;;0.60;0.52;;;24.30;99.90;;;;;;5114576;28;20235;-80
2023/09/02 09:15:59;;;;;;;0.60;0.55;;;24.40;99.90;;;;;;5114479;28;20221;-81
2023/09/02 09:18:26;;;;;;;1.15;0.80;;;24.60;99.90;;;;;;5114170;28;20208;-81
2023/09/02 09:20:52;;;;;;;0.70;0.65;;;24.80;99.90;;;;;;5114484;28;20204;-81
2023/09/02 09:23:19;;;;;;;2.05;0.70;;;25.00;99.90;;;;;;5114432;28;20204;-80
2023/09/02 09:25:49;;;;;;;3.10;0.80;;;24.70;99.90;;;;;;5114240;27;20239;-80
2023/09/02 09:28:16;;;;;;;0.80;0.80;;;24.50;99.90;;;;;;5114011;28;20585;-80
2023/09/02 09:30:44;;;;;;;0.60;0.60;;;24.40;99.90;;;;;;5114028;28;20197;-81
2023/09/02 09:33:11;;;;;;;1.05;0.80;;;24.40;99.90;;;;;;5113913;28;20572;-81
2023/09/02 09:35:38;;;;;;;0.82;0.52;;;24.40;99.90;;;;;;5113837;28;20224;-81
2023/09/02 09:38:05;;;;;;;0.57;0.50;;;24.50;99.90;;;;;;5113880;27;20257;-80
2023/09/02 09:40:33;;;;;;;0.65;0.57;;;24.50;99.90;;;;;;5114067;28;20201;-81
2023/09/02 09:43:00;;;;;;;0.50;0.50;;;24.60;99.90;;;;;;5114089;28;20208;-81
2023/09/02 09:45:28;;;;;;;0.55;0.55;;;24.70;99.90;;;;;;5113832;28;20220;-81
2023/09/02 09:47:59;;;;;;;2.55;0.80;;;24.70;99.90;;;;;;5114309;28;20192;-81
2023/09/02 09:50:28;;;;;;;0.85;0.85;;;24.80;99.90;;;;;;5114058;28;20188;-80
2023/09/02 09:53:01;;;;;;;0.85;0.50;;;24.80;99.90;;;;;;5113668;28;20726;-80
2023/09/02 09:55:28;;;;;;;0.77;0.57;;;24.90;99.90;;;;;;5113551;28;20771;-80
2023/09/02 09:57:57;;;;;;;0.50;0.50;;;24.70;99.90;;;;;;5113940;28;20188;-80
2023/09/02 10:00:24;;;;;;;0.50;0.50;;;24.70;99.90;;;;;;5113888;28;20211;-80
2023/09/02 10:02:52;;;;;;;0.60;0.60;;;24.60;99.90;;;;;;5113792;28;20665;-80
2023/09/02 10:05:26;;;;;;;0.60;0.60;;;24.70;99.90;;;;;;5113193;28;20225;-81
2023/09/02 10:08:04;;;;;;;0.60;0.60;;;24.70;99.90;;;;;;5113789;28;20189;-80
2023/09/02 10:10:33;;;;;;;1.25;0.80;;;24.90;99.90;;;;;;5114484;28;20279;-80
2023/09/02 10:13:01;;;;;;;1.02;0.70;;;25.00;99.90;;;;;;5113775;28;20204;-80
2023/09/02 10:15:28;;;;;;;0.50;0.50;;;25.10;99.90;;;;;;5113639;28;20223;-80
2023/09/02 10:17:57;;;;;;;0.85;0.60;;;25.10;99.90;;;;;;5113659;28;20235;-80
2023/09/02 10:20:27;;;;;;;0.60;0.60;;;25.20;99.90;;;;;;5113924;28;20208;-81
2023/09/02 10:22:54;;;;;;;0.80;0.80;;;25.20;99.90;;;;;;5113867;28;20201;-81
2023/09/02 10:25:27;;;;;;;0.52;0.45;;;25.30;99.90;;;;;;5113429;28;20228;-80
2023/09/02 10:28:02;;;;;;;0.60;0.57;;;25.30;99.90;;;;;;5113645;28;20218;-80
2023/09/02 10:30:34;;;;;;;0.85;0.68;;;25.30;99.90;;;;;;5113568;28;20185;-80
2023/09/02 10:33:10;;;;;;;0.88;0.65;;;25.30;99.90;;;;;;5113629;28;20280;-80
2023/09/02 10:35:42;;;;;;;0.50;0.50;;;25.40;99.90;;;;;;5113393;28;20216;-80
2023/09/02 10:38:16;;;;;;;0.57;0.47;;;25.40;99.90;;;;;;5113534;28;20185;-80
2023/09/02 10:40:49;;;;;;;1.20;0.50;;;25.50;99.90;;;;;;5113519;28;20192;-80
2023/09/02 10:43:16;;;;;;;0.60;0.60;;;25.40;99.90;;;;;;5113570;28;20181;-80
2023/09/02 10:45:44;;;;;;;0.50;0.50;;;25.50;99.90;;;;;;5113305;28;20220;-80
2023/09/02 10:48:11;;;;;;;0.73;0.50;;;25.50;99.90;;;;;;5113420;28;20197;-81
2023/09/02 10:50:40;;;;;;;0.68;0.68;;;25.50;99.90;;;;;;5113677;28;20223;-81
2023/09/02 10:53:06;;;;;;;0.63;0.60;;;25.70;99.90;;;;;;5113293;28;20572;-80
2023/09/02 10:55:33;;;;;;;0.73;0.50;;;25.70;99.90;;;;;;5113300;28;20217;-81
2023/09/02 10:58:00;;;;;;;0.50;0.50;;;25.80;99.90;;;;;;5113287;28;20228;-81
2023/09/02 11:00:28;;;;;;;0.55;0.40;;;25.90;99.90;;;;;;5113365;28;20219;-81
2023/09/02 11:02:57;;;;;;;5.25;0.90;;;25.90;99.90;;;;;;5113315;28;20200;-81
2023/09/02 11:05:25;;;;;;;0.50;0.50;;;25.90;99.90;;;;;;5112755;28;20324;-81
2023/09/02 11:07:54;;;;;;;0.80;0.55;;;26.20;99.90;;;;;;5112874;28;20200;-80
2023/09/02 11:10:21;;;;;;;0.50;0.40;;;26.30;99.90;;;;;;5113214;28;20225;-81
2023/09/02 11:13:05;;;;;;;0.55;0.55;;;26.40;99.90;;;;;;5113212;28;20196;-80
2023/09/02 11:15:32;;;;;;;0.60;0.50;;;26.40;99.90;;;;;;5111683;28;20275;-80
2023/09/02 11:18:33;;;;;;;0.70;0.50;;;26.40;99.90;;;;;;5116322;28;20572;-81
2023/09/02 11:21:00;;;;;;;0.50;0.43;;;26.30;99.90;;;;;;5116839;28;20189;-80
2023/09/02 11:23:29;;;;;;;0.47;0.45;;;26.30;99.90;;;;;;5116445;28;20288;-80
2023/09/02 11:26:04;;;;;;;0.40;0.40;;;26.30;99.90;;;;;;5116331;28;20243;-81
2023/09/02 11:28:31;;;;;;;1.25;0.57;;;26.30;99.90;;;;;;5116626;28;20223;-81
2023/09/02 11:31:08;;;;;;;0.50;0.50;;;26.30;99.90;;;;;;5116257;28;20571;-81
2023/09/02 11:33:35;;;;;;;0.55;0.55;;;26.20;99.90;;;;;;5116677;28;20181;-81
2023/09/02 11:36:06;;;;;;;0.50;0.50;;;26.10;99.90;;;;;;5116709;28;20221;-80
2023/09/02 11:38:35;;;;;;;0.60;0.50;;;26.00;99.90;;;;;;5116459;27;20205;-81
2023/09/02 11:41:02;;;;;;;0.68;0.40;;;26.00;99.90;;;;;;5116417;28;20201;-81
2023/09/02 11:43:31;;;;;;;0.60;0.52;;;25.90;99.90;;;;;;5116393;28;20201;-80
2023/09/02 11:45:59;;;;;;;0.60;0.60;;;25.90;99.90;;;;;;5116204;28;20224;-81
2023/09/02 11:48:26;;;;;;;0.63;0.43;;;25.90;99.90;;;;;;5116280;28;20201;-80
2023/09/02 11:50:53;;;;;;;0.50;0.50;;;25.90;99.90;;;;;;5115903;28;20212;-81
2023/09/02 11:53:20;;;;;;;0.52;0.52;;;26.00;99.90;;;;;;5116113;28;20253;-81
2023/09/02 11:55:48;;;;;;;0.70;0.70;;;25.90;99.90;;;;;;5115711;28;20228;-81
2023/09/02 11:58:17;;;;;;;0.73;0.57;;;26.00;99.90;;;;;;5116108;28;20211;-81
2023/09/02 12:00:44;;;;;;;0.40;0.40;;;26.00;99.90;;;;;;5115738;28;20654;-81
2023/09/02 12:03:14;;;;;;;0.50;0.50;;;26.00;99.90;;;;;;5115916;28;20201;-81
2023/09/02 12:05:48;;;;;;;0.93;0.40;;;25.90;99.90;;;;;;5115597;28;20568;-81
2023/09/02 12:08:16;;;;;;;0.77;0.60;;;25.80;99.90;;;;;;5115878;28;20181;-81
2023/09/02 12:10:42;;;;;;;0.60;0.40;;;25.70;99.90;;;;;;5115857;28;20569;-81
2023/09/02 12:13:11;;;;;;;0.80;0.70;;;25.60;99.90;;;;;;5115779;28;20196;-81
2023/09/02 12:15:37;;;;;;;0.50;0.50;;;25.40;99.90;;;;;;5115369;27;20782;-81
2023/09/02 12:18:05;;;;;;;0.50;0.50;;;25.40;99.90;;;;;;5115669;28;20230;-81
2023/09/02 12:20:32;;;;;;;2.50;0.50;;;25.30;99.90;;;;;;5115731;28;20201;-81
2023/09/02 12:22:59;;;;;;;0.52;0.52;;;25.30;99.90;;;;;;5115821;28;20197;-81
2023/09/02 12:25:26;;;;;;;0.50;0.50;;;25.30;99.90;;;;;;5115457;28;20321;-81
2023/09/02 12:27:53;;;;;;;0.60;0.60;;;25.20;99.90;;;;;;5115413;28;20203;-81
2023/09/02 12:30:30;;;;;;;0.70;0.57;;;25.30;99.90;;;;;;5115441;28;20204;-81
2023/09/02 12:32:58;;;;;;;0.57;0.50;;;25.20;99.90;;;;;;5115639;28;20598;-80
2023/09/02 12:35:25;;;;;;;0.50;0.40;;;25.20;99.90;;;;;;5115942;28;20235;-85
2023/09/02 12:38:00;;;;;;;0.80;0.60;;;25.20;99.90;;;;;;5115270;28;20204;-81
2023/09/02 12:40:27;;;;;;;0.63;0.60;;;25.20;99.90;;;;;;5115050;27;20555;-81
2023/09/02 12:42:55;;;;;;;1.17;0.60;;;25.20;99.90;;;;;;5114909;28;20212;-81
2023/09/02 12:45:29;;;;;;;0.50;0.50;;;25.10;99.90;;;;;;5114823;28;20224;-81
2023/09/02 12:47:57;;;;;;;0.75;0.60;;;25.10;99.90;;;;;;5115030;28;20188;-80
2023/09/02 12:50:24;;;;;;;0.50;0.50;;;24.90;99.90;;;;;;5115130;28;20205;-81
2023/09/02 12:52:57;;;;;;;0.50;0.50;;;24.90;99.90;;;;;;5114854;28;20212;-81